Terminal Aerodrome Forecast
Issued by NWS Jacksonville, FL

Home | Current Version | Previous Version | Text Only | Print | Product List | Glossary On
Versions: 1 2 3 4 5 6 7 8 9 10 11 12 13 14 15 16 17 18 19 20 21 22 23 24 25 26 27 28 29 30 31
000
FTUS42 KJAX 072016 AAC
TAFJAX
TAF AMD
KJAX 072016Z 0720/0818 23010KT 5SM -TSRA BKN030CB OVC045
     FM072050 21008KT P6SM VCTS SCT030CB BKN045 OVC120
     FM072200 17007KT P6SM VCSH SCT050 BKN150 OVC250
     FM080100 VRB03KT P6SM FEW050 SCT150 BKN250=

USA.gov is the U.S. government's official web portal to all federal, state and local government web resources and services.